Time;durP1;ratioP1;P1;durP2;ratioP2;P2;SDS_P1;SDS_P2;PMS_P1;PMS_P2;Temp;Humidity;BMP_temperature;BMP_pressure;BME280_temperature;BME280_humidity;BME280_pressure;Samples;Min_cycle;Max_cycle;Signal;HPM_P1;HPM_P2
2022/10/04 00:00:29;;;;;;;12.82;2.13;;;;;;;17.47;62.64;101781.25;5034011;28;96694;-65
2022/10/04 00:03:03;;;;;;;12.25;1.63;;;;;;;17.46;62.49;101781.31;5033183;28;96813;-66
2022/10/04 00:05:31;;;;;;;13.57;2.10;;;;;;;17.13;63.80;101783.81;5033326;27;99347;-65
2022/10/04 00:08:02;;;;;;;11.52;1.70;;;;;;;17.37;63.05;101788.00;5029518;28;98777;-66
2022/10/04 00:10:32;;;;;;;11.95;1.65;;;;;;;17.16;63.67;101789.00;5030145;28;97539;-65
2022/10/04 00:13:00;;;;;;;12.25;1.75;;;;;;;17.36;63.03;101796.06;5031237;28;99428;-66
2022/10/04 00:15:33;;;;;;;13.38;1.90;;;;;;;17.24;63.31;101802.00;5032830;27;99225;-66
2022/10/04 00:18:18;;;;;;;11.65;2.03;;;;;;;17.50;62.48;101796.28;5032052;27;98196;-66
2022/10/04 00:21:03;;;;;;;14.25;2.15;;;;;;;17.72;61.43;101789.00;5031498;28;96719;-66
2022/10/04 00:23:42;;;;;;;15.80;1.85;;;;;;;17.94;60.66;101788.81;5030759;28;98358;-66
2022/10/04 00:26:15;;;;;;;18.23;2.20;;;;;;;17.99;60.18;101793.91;5030956;28;99320;-66
2022/10/04 00:28:47;;;;;;;15.93;2.97;;;;;;;17.94;60.33;101799.50;5032837;28;98909;-66
2022/10/04 00:31:26;;;;;;;16.02;3.22;;;;;;;17.83;60.24;101794.69;5032389;28;97052;-66
2022/10/04 00:33:58;;;;;;;10.95;1.73;;;;;;;17.87;60.32;101798.94;5031982;28;96981;-66
2022/10/04 00:36:38;;;;;;;16.08;2.25;;;;;;;17.97;59.96;101795.81;5028980;28;98914;-66
2022/10/04 00:39:17;;;;;;;15.70;2.25;;;;;;;18.02;59.85;101799.13;5028554;28;98830;-65
2022/10/04 00:41:55;;;;;;;13.88;2.00;;;;;;;17.81;60.20;101798.38;5032518;28;96720;-66
2022/10/04 00:44:28;;;;;;;13.98;2.08;;;;;;;17.78;60.21;101796.75;5031486;28;97641;-66
2022/10/04 00:46:56;;;;;;;11.82;1.75;;;;;;;17.58;60.73;101802.16;5031253;28;99565;-66
2022/10/04 00:49:29;;;;;;;11.20;1.92;;;;;;;17.57;60.66;101792.38;5032707;28;99441;-66
2022/10/04 00:52:01;;;;;;;16.67;2.17;;;;;;;17.51;60.85;101798.03;5030579;27;97524;-66
2022/10/04 00:54:32;;;;;;;11.52;1.90;;;;;;;17.90;60.01;101796.13;5028265;28;97126;-66
2022/10/04 00:57:07;;;;;;;10.98;1.60;;;;;;;17.72;59.91;101794.34;5030442;28;98981;-66
2022/10/04 00:59:38;;;;;;;15.30;1.83;;;;;;;17.44;60.50;101793.91;5032041;28;98909;-66
2022/10/04 01:02:12;;;;;;;15.25;2.00;;;;;;;17.52;60.61;101786.41;5030811;28;96904;-65
2022/10/04 01:04:47;;;;;;;9.98;2.00;;;;;;;17.38;61.09;101794.22;5032103;28;96737;-65
2022/10/04 01:07:21;;;;;;;20.45;2.67;;;;;;;17.18;61.67;101791.59;5031063;28;102020;-66
2022/10/04 01:09:52;;;;;;;14.43;2.33;;;;;;;17.45;60.85;101791.19;5027951;28;99278;-68
2022/10/04 01:12:33;;;;;;;13.27;2.17;;;;;;;17.47;60.75;101781.25;5026079;28;96759;-66
2022/10/04 01:15:07;;;;;;;13.65;2.20;;;;;;;17.53;60.59;101785.44;5028507;28;97240;-66
2022/10/04 01:17:34;;;;;;;16.05;2.25;;;;;;;17.31;61.39;101777.59;5029453;28;98870;-65
2022/10/04 01:20:02;;;;;;;10.15;1.88;;;;;;;17.24;61.00;101776.16;5028878;28;98972;-65
2022/10/04 01:22:37;;;;;;;9.88;1.50;;;;;;;16.90;62.40;101784.84;5027438;28;97554;-67
2022/10/04 01:25:08;;;;;;;11.93;2.03;;;;;;;17.04;61.79;101781.56;5029784;28;97208;-67
2022/10/04 01:27:41;;;;;;;14.23;2.30;;;;;;;17.14;61.51;101782.84;5031957;28;98898;-65
2022/10/04 01:30:11;;;;;;;10.88;2.05;;;;;;;17.04;61.72;101789.56;5030105;28;97566;-66
2022/10/04 01:32:39;;;;;;;14.10;2.00;;;;;;;17.13;61.67;101784.66;5030608;28;98191;-65
2022/10/04 01:35:08;;;;;;;12.95;2.40;;;;;;;17.12;61.60;101779.41;5030223;27;96763;-66
2022/10/04 01:37:36;;;;;;;12.20;2.15;;;;;;;17.18;61.22;101781.78;5030072;28;99503;-66
2022/10/04 01:40:04;;;;;;;12.40;2.13;;;;;;;16.81;62.61;101782.59;5029586;28;101408;-66
2022/10/04 01:42:36;;;;;;;17.42;3.45;;;;;;;17.13;61.50;101775.81;5031326;28;97130;-66
2022/10/04 01:45:09;;;;;;;8.82;1.90;;;;;;;17.00;61.46;101772.78;5030841;27;96741;-67
2022/10/04 01:47:41;;;;;;;15.52;2.47;;;;;;;16.80;62.08;101775.53;5031144;28;99500;-66
2022/10/04 01:50:17;;;;;;;9.25;1.63;;;;;;;16.58;62.91;101777.38;5030766;27;99521;-66
2022/10/04 01:52:47;;;;;;;;;;;;;;;16.70;62.50;101777.75;5030334;28;96784;-66
2022/10/04 01:55:20;;;;;;;10.02;1.45;;;;;;;16.89;61.63;101775.09;5030598;28;97496;-66
2022/10/04 01:57:52;;;;;;;11.75;1.73;;;;;;;17.02;61.44;101770.94;5027427;28;99363;-66
2022/10/04 02:00:23;;;;;;;10.65;2.38;;;;;;;16.99;61.15;101775.56;5027506;28;98866;-65
2022/10/04 02:02:54;;;;;;;15.55;2.20;;;;;;;16.92;61.45;101777.66;5032633;28;96808;-65
2022/10/04 02:05:28;;;;;;;12.18;2.08;;;;;;;17.01;61.01;101766.53;5033227;28;96962;-65
2022/10/04 02:08:01;;;;;;;15.70;2.03;;;;;;;17.02;61.06;101764.72;5033753;28;99553;-66
2022/10/04 02:10:29;;;;;;;17.25;2.72;;;;;;;16.80;61.77;101756.84;5030391;28;98121;-66
2022/10/04 02:12:56;;;;;;;12.40;2.03;;;;;;;16.77;61.86;101756.09;5034707;27;96825;-65
2022/10/04 02:15:27;;;;;;;13.00;2.05;;;;;;;16.87;61.64;101755.59;5034150;27;96866;-66
2022/10/04 02:17:55;;;;;;;15.00;1.92;;;;;;;16.70;62.20;101752.84;5033536;28;98891;-67
2022/10/04 02:20:26;;;;;;;16.92;1.73;;;;;;;17.08;60.57;101749.28;5034167;28;99507;-65
2022/10/04 02:23:02;;;;;;;15.38;2.17;;;;;;;17.13;60.04;101762.44;5032993;28;96729;-66
2022/10/04 02:25:29;;;;;;;12.40;1.60;;;;;;;17.34;59.46;101766.75;5033785;27;97073;-66
2022/10/04 02:27:56;;;;;;;10.55;2.13;;;;;;;17.37;58.99;101763.94;5034030;28;98929;-65
2022/10/04 02:30:25;;;;;;;8.18;2.08;;;;;;;17.32;58.71;101767.78;5033912;27;98334;-65
2022/10/04 02:32:59;;;;;;;12.90;1.83;;;;;;;17.24;58.83;101764.59;5034608;28;96827;-66
2022/10/04 02:35:28;;;;;;;10.30;1.60;;;;;;;17.23;58.81;101760.19;5034376;28;96702;-66
2022/10/04 02:38:05;;;;;;;13.52;1.73;;;;;;;16.99;59.32;101759.53;5034798;27;98247;-66
2022/10/04 02:40:42;;;;;;;9.60;1.92;;;;;;;16.98;59.65;101756.00;5032310;27;98849;-67
2022/10/04 02:43:12;;;;;;;9.68;1.75;;;;;;;16.86;59.42;101758.38;5032513;28;96850;-67
2022/10/04 02:45:45;;;;;;;10.85;1.88;;;;;;;16.75;60.08;101761.50;5033885;28;96892;-66
2022/10/04 02:48:27;;;;;;;9.57;2.03;;;;;;;16.37;61.64;101762.31;5033432;28;99869;-66
2022/10/04 02:50:57;;;;;;;10.82;2.17;;;;;;;16.20;62.34;101753.25;5033038;28;99040;-65
2022/10/04 02:53:33;;;;;;;9.00;2.00;;;;;;;16.29;62.40;101755.50;5032536;28;96664;-65
2022/10/04 02:56:02;;;;;;;6.82;1.50;;;;;;;16.18;63.14;101746.25;5033878;28;96820;-67
2022/10/04 02:58:32;;;;;;;13.80;2.20;;;;;;;16.02;63.72;101754.00;5032768;27;99241;-65
2022/10/04 03:01:01;;;;;;;15.07;1.63;;;;;;;16.22;63.23;101750.50;5033907;27;99031;-67
2022/10/04 03:03:30;;;;;;;15.77;2.78;;;;;;;16.31;62.83;101740.31;5032506;28;97608;-66
2022/10/04 03:06:01;;;;;;;9.05;1.95;;;;;;;15.87;64.54;101744.00;5034353;27;96882;-66
2022/10/04 03:08:33;;;;;;;21.25;1.98;;;;;;;16.03;64.17;101747.75;5033070;28;98957;-67
2022/10/04 03:11:03;;;;;;;12.00;2.05;;;;;;;15.76;65.07;101751.56;5033431;27;98765;-66
2022/10/04 03:13:31;;;;;;;12.40;1.75;;;;;;;15.99;64.58;101754.16;5034127;28;97314;-68
2022/10/04 03:15:57;;;;;;;12.35;2.42;;;;;;;16.19;64.08;101747.97;5031014;27;97560;-66
2022/10/04 03:18:25;;;;;;;18.13;2.47;;;;;;;16.03;64.48;101750.41;5031793;28;99149;-66
2022/10/04 03:20:52;;;;;;;14.07;2.65;;;;;;;16.21;64.13;101746.13;5032652;28;98775;-66
2022/10/04 03:23:20;;;;;;;17.23;3.17;;;;;;;16.53;63.07;101747.38;5033568;28;97021;-66
2022/10/04 03:25:54;;;;;;;14.32;3.33;;;;;;;16.45;63.21;101755.72;5034241;28;96848;-67
2022/10/04 03:28:22;;;;;;;17.23;2.28;;;;;;;16.21;63.97;101757.63;5029109;28;97765;-67
2022/10/04 03:30:51;;;;;;;19.08;2.42;;;;;;;15.80;65.21;101763.84;5033932;28;97902;-67
2022/10/04 03:33:21;;;;;;;18.50;2.20;;;;;;;15.87;65.24;101755.53;5032337;28;97140;-67
2022/10/04 03:35:50;;;;;;;21.40;2.67;;;;;;;15.84;65.19;101753.00;5032491;27;96818;-67
2022/10/04 03:38:17;;;;;;;18.35;2.42;;;;;;;15.86;65.18;101759.13;5029425;28;99304;-67
2022/10/04 03:40:53;;;;;;;18.58;1.92;;;;;;;15.85;65.10;101756.53;5030768;28;99096;-66
2022/10/04 03:43:25;;;;;;;13.95;2.13;;;;;;;15.93;64.72;101755.28;5032024;28;98012;-66
2022/10/04 03:45:53;;;;;;;17.25;2.85;;;;;;;15.79;65.11;101762.97;5029652;28;96936;-66
2022/10/04 03:48:32;;;;;;;14.88;2.45;;;;;;;16.03;64.32;101765.53;5031991;28;98955;-66
2022/10/04 03:51:00;;;;;;;16.08;1.83;;;;;;;16.13;63.56;101762.44;5034631;28;99137;-65
2022/10/04 03:53:34;;;;;;;16.33;2.85;;;;;;;15.98;64.12;101763.06;5027230;28;97484;-68
2022/10/04 03:56:08;;;;;;;12.73;2.00;;;;;;;16.12;63.83;101763.38;5030876;28;96736;-66
2022/10/04 03:58:37;;;;;;;20.40;2.40;;;;;;;16.09;63.86;101759.94;5032718;28;99477;-67
2022/10/04 04:01:21;;;;;;;12.30;1.70;;;;;;;16.02;63.83;101759.34;5032132;28;99178;-66
2022/10/04 04:03:57;;;;;;;16.00;2.72;;;;;;;16.25;63.35;101761.91;5032433;28;96892;-66
2022/10/04 04:06:29;;;;;;;15.43;2.72;;;;;;;16.24;63.18;101762.84;5030670;28;98334;-68
2022/10/04 04:08:57;;;;;;;17.27;2.38;;;;;;;16.26;63.18;101762.78;5029277;28;99359;-67
2022/10/04 04:11:29;;;;;;;15.40;2.53;;;;;;;16.09;63.74;101765.28;5032048;28;98886;-66
2022/10/04 04:14:04;;;;;;;12.40;1.70;;;;;;;15.98;63.93;101765.75;5033072;28;96943;-67
2022/10/04 04:16:31;;;;;;;9.27;1.90;;;;;;;15.86;64.00;101768.91;5031580;28;97343;-66
2022/10/04 04:19:01;;;;;;;17.27;2.80;;;;;;;16.18;62.94;101771.09;5027052;28;99239;-68
2022/10/04 04:21:31;;;;;;;16.52;2.05;;;;;;;15.97;63.46;101766.66;5033335;28;98912;-67
2022/10/04 04:24:00;;;;;;;16.55;2.33;;;;;;;16.00;63.41;101766.56;5031300;27;97791;-66
2022/10/04 04:26:38;;;;;;;12.75;2.20;;;;;;;16.11;62.81;101769.63;5034276;27;96987;-67
2022/10/04 04:29:14;;;;;;;15.85;2.00;;;;;;;16.21;62.65;101772.78;5030551;28;99466;-67
2022/10/04 04:31:44;;;;;;;13.23;1.85;;;;;;;16.24;62.47;101762.84;5028452;28;97964;-66
2022/10/04 04:34:18;;;;;;;13.98;2.17;;;;;;;16.37;61.89;101767.63;5032464;28;96876;-66
2022/10/04 04:36:45;;;;;;;19.05;2.83;;;;;;;16.06;62.27;101770.75;5030039;27;98506;-67
2022/10/04 04:39:36;;;;;;;13.93;2.17;;;;;;;16.02;62.86;101767.34;5031346;28;99053;-67
2022/10/04 04:42:07;;;;;;;13.80;1.98;;;;;;;15.98;63.01;101768.41;5030182;28;102031;-67
2022/10/04 04:44:35;;;;;;;13.75;2.20;;;;;;;15.87;63.54;101776.00;5032933;27;96695;-66
2022/10/04 04:47:07;;;;;;;11.23;1.70;;;;;;;15.96;63.15;101764.94;5028910;28;97614;-67
2022/10/04 04:49:38;;;;;;;12.30;2.28;;;;;;;15.82;63.51;101777.94;5031130;28;99383;-67
2022/10/04 04:52:05;;;;;;;13.25;1.77;;;;;;;15.77;63.69;101779.94;5031316;28;99284;-67
2022/10/04 04:54:33;;;;;;;16.83;2.45;;;;;;;16.06;63.16;101784.09;5031903;28;97205;-66
2022/10/04 04:56:59;;;;;;;12.38;2.50;;;;;;;15.90;63.71;101776.72;5029882;28;97912;-66
2022/10/04 04:59:28;;;;;;;12.85;2.40;;;;;;;15.77;64.07;101775.50;5031476;28;99331;-67
2022/10/04 05:01:54;;;;;;;13.88;2.03;;;;;;;15.89;63.91;101779.44;5031845;28;98833;-66
2022/10/04 05:04:23;;;;;;;12.43;2.47;;;;;;;16.08;62.81;101775.06;5032207;27;96865;-66
2022/10/04 05:07:01;;;;;;;19.42;2.70;;;;;;;15.87;63.61;101770.66;5031501;28;96928;-67
2022/10/04 05:09:30;;;;;;;11.95;2.05;;;;;;;15.85;63.70;101784.03;5031997;28;98955;-66
2022/10/04 05:12:06;;;;;;;16.08;2.70;;;;;;;15.95;63.49;101777.38;5031381;28;101305;-67
2022/10/04 05:14:38;;;;;;;16.17;2.92;;;;;;;15.79;63.79;101780.75;5030579;28;96885;-66
2022/10/04 05:17:06;;;;;;;14.63;2.60;;;;;;;15.84;63.60;101774.31;5030475;28;97159;-67
2022/10/04 05:19:36;;;;;;;15.13;3.10;;;;;;;16.08;62.61;101783.06;5025727;28;99427;-68
2022/10/04 05:22:10;;;;;;;13.68;2.60;;;;;;;15.91;62.67;101773.13;5031125;27;101028;-66
2022/10/04 05:24:39;;;;;;;12.15;1.80;;;;;;;16.25;61.46;101782.38;5029295;28;97118;-66
2022/10/04 05:27:15;;;;;;;9.95;1.75;;;;;;;16.33;nan;101783.78;5032674;27;97217;-67
2022/10/04 05:29:56;;;;;;;8.98;2.22;;;;;;;16.49;60.33;101785.78;5031205;28;97856;-67
2022/10/04 05:32:33;;;;;;;14.23;2.00;;;;;;;16.42;60.45;101779.84;5030644;27;99156;-68
2022/10/04 05:35:01;;;;;;;15.45;2.47;;;;;;;16.62;60.08;101779.88;5030751;28;96921;-68
2022/10/04 05:37:49;;;;;;;16.70;2.22;;;;;;;16.35;60.83;101784.56;5031551;27;96860;-67
2022/10/04 05:40:38;;;;;;;8.48;1.50;;;;;;;16.34;60.88;101788.16;5022702;28;99406;-68
2022/10/04 05:43:23;;;;;;;15.90;2.05;;;;;;;16.74;60.05;101787.31;5027884;28;100442;-68
2022/10/04 05:46:13;;;;;;;19.95;2.88;;;;;;;16.91;59.52;101788.38;5025305;27;96773;-67
2022/10/04 05:48:42;;;;;;;12.93;2.72;;;;;;;16.76;59.90;101784.59;5028904;28;96773;-67
2022/10/04 05:51:18;;;;;;;19.15;2.85;;;;;;;16.88;59.97;101792.06;5028434;27;97102;-66
2022/10/04 05:53:45;;;;;;;14.82;2.80;;;;;;;16.75;60.03;101801.53;5030145;28;98802;-67
2022/10/04 05:56:28;;;;;;;13.60;2.00;;;;;;;17.06;59.49;101803.72;5031325;28;96723;-66
2022/10/04 05:59:06;;;;;;;12.20;2.20;;;;;;;16.95;59.77;101801.53;5030434;28;97461;-67
2022/10/04 06:01:45;;;;;;;17.88;3.35;;;;;;;16.94;59.91;101805.13;5023493;28;99133;-68
2022/10/04 06:04:48;;;;;;;12.40;3.08;;;;;;;17.17;59.31;101803.22;5029029;28;98861;-67
2022/10/04 06:07:23;;;;;;;16.70;2.45;;;;;;;17.26;58.88;101805.47;4945668;28;96972;-67
2022/10/04 06:09:59;;;;;;;13.43;2.70;;;;;;;17.12;59.19;101806.97;5015335;27;97046;-67
2022/10/04 06:12:41;;;;;;;11.37;2.70;;;;;;;17.19;58.73;101801.34;5028366;28;98087;-67
2022/10/04 06:15:44;;;;;;;15.00;3.05;;;;;;;17.14;58.90;101796.19;5028451;28;99496;-67
2022/10/04 06:18:43;;;;;;;15.90;3.72;;;;;;;17.40;57.99;101795.84;5020884;27;97210;-67
2022/10/04 06:21:18;;;;;;;10.68;1.95;;;;;;;17.23;57.66;101795.78;5027957;28;96843;-67
2022/10/04 06:23:51;;;;;;;11.73;2.20;;;;;;;17.44;57.43;101799.25;5028072;28;98905;-66
2022/10/04 06:26:23;;;;;;;11.13;2.10;;;;;;;17.25;57.55;101809.06;5031494;28;98916;-66
2022/10/04 06:28:54;;;;;;;14.75;2.28;;;;;;;17.32;57.19;101803.38;5027003;28;96775;-67
2022/10/04 06:31:43;;;;;;;18.33;2.45;;;;;;;17.21;57.77;101811.00;5022436;28;97364;-66
2022/10/04 06:34:34;;;;;;;15.20;2.70;;;;;;;16.86;59.04;101812.63;5028620;28;101740;-66
2022/10/04 06:37:21;;;;;;;17.05;3.00;;;;;;;17.32;57.89;101813.19;5025194;28;98952;-67
2022/10/04 06:40:08;;;;;;;15.88;2.40;;;;;;;17.55;57.28;101823.66;5028176;28;96775;-67
2022/10/04 06:42:43;;;;;;;;;;;;;;;17.88;56.22;101810.50;5024131;28;97339;-66
2022/10/04 06:45:36;;;;;;;11.38;1.92;;;;;;;17.88;55.95;101816.72;5022009;28;99361;-66
2022/10/04 06:48:18;;;;;;;14.52;2.38;;;;;;;18.19;54.99;101815.19;5026287;28;99131;-68
2022/10/04 06:50:50;;;;;;;11.55;2.13;;;;;;;17.83;55.67;101821.44;5027424;27;97536;-66
2022/10/04 06:53:47;;;;;;;11.80;2.90;;;;;;;17.41;56.73;101823.44;5028542;28;97489;-67
2022/10/04 06:56:35;;;;;;;10.98;2.40;;;;;;;17.13;57.97;101826.53;5029705;28;98939;-68
2022/10/04 06:59:18;;;;;;;18.33;3.88;;;;;;;17.35;57.51;101829.06;5030588;28;97942;-66
2022/10/04 07:01:50;;;;;;;8.05;2.03;;;;;;;17.52;57.18;101823.81;5028792;28;97415;-66
2022/10/04 07:04:30;;;;;;;9.32;2.38;;;;;;;17.19;58.02;101825.38;5030293;28;97143;-67
2022/10/04 07:07:25;;;;;;;17.10;5.03;;;;;;;17.47;57.48;101831.16;5029456;28;99157;-68
2022/10/04 07:10:03;;;;;;;15.23;2.67;;;;;;;17.91;56.51;101823.75;5028234;28;98742;-66
2022/10/04 07:12:38;;;;;;;12.23;2.47;;;;;;;17.67;56.86;101827.56;5029471;28;97151;-67
2022/10/04 07:15:17;;;;;;;12.13;2.17;;;;;;;17.90;56.16;101828.22;5030463;28;97202;-67
2022/10/04 07:17:46;;;;;;;11.55;2.58;;;;;;;17.96;56.03;101831.53;5027589;28;97633;-66
2022/10/04 07:20:21;;;;;;;12.85;2.25;;;;;;;17.75;56.60;101839.66;5030368;28;99068;-68
2022/10/04 07:22:56;;;;;;;13.55;2.67;;;;;;;17.89;56.41;101837.19;5029428;28;97276;-67
2022/10/04 07:25:26;;;;;;;10.80;2.20;;;;;;;17.95;56.15;101843.16;5026897;28;96907;-68
2022/10/04 07:30:48;;;;;;;18.95;2.50;;;;;;;18.29;55.39;101856.59;5028401;27;98866;-67
2022/10/04 07:33:28;;;;;;;11.70;2.85;;;;;;;18.28;55.47;101854.88;5026704;28;96873;-68
2022/10/04 07:36:09;;;;;;;16.10;4.28;;;;;;;17.49;57.81;101858.69;5028689;28;97832;-68
2022/10/04 07:38:47;;;;;;;16.25;3.97;;;;;;;17.98;56.72;101857.25;5027929;28;97002;-69
2022/10/04 07:41:23;;;;;;;12.55;3.03;;;;;;;18.09;56.29;101854.91;5029941;28;98884;-67
2022/10/04 07:43:59;;;;;;;13.03;3.00;;;;;;;18.17;56.05;101854.53;5029283;27;96945;-67
2022/10/04 07:46:33;;;;;;;;;;;;;;;18.16;56.23;101863.50;5026604;28;96877;-67
2022/10/04 07:49:00;;;;;;;15.48;3.88;;;;;;;18.31;55.75;101858.25;5030083;28;98504;-68
2022/10/04 07:51:39;;;;;;;20.13;3.78;;;;;;;17.69;56.93;101858.66;5030017;28;100657;-67
2022/10/04 07:54:17;;;;;;;11.52;3.28;;;;;;;17.73;57.05;101857.56;5028261;28;97604;-68
2022/10/04 07:56:51;;;;;;;9.88;3.05;;;;;;;18.28;55.50;101865.56;5030111;28;98528;-67
2022/10/04 07:59:35;;;;;;;15.32;3.47;;;;;;;18.04;56.17;101856.09;5029355;28;98871;-67
2022/10/04 08:02:21;;;;;;;14.05;3.55;;;;;;;18.12;56.13;101867.25;5019439;27;98987;-67
2022/10/04 08:05:03;;;;;;;12.98;3.47;;;;;;;18.06;56.40;101862.22;5022513;27;96867;-67
2022/10/04 08:07:53;;;;;;;15.27;5.00;;;;;;;18.43;55.34;101870.16;5026287;27;97299;-67
2022/10/04 08:10:30;;;;;;;14.23;4.22;;;;;;;18.18;55.98;101877.69;5027900;28;98316;-67
2022/10/04 08:13:15;;;;;;;10.40;3.50;;;;;;;18.44;55.34;101884.41;5028140;28;99121;-67
2022/10/04 08:15:43;;;;;;;15.88;4.88;;;;;;;18.83;54.76;101886.91;5029507;28;97682;-68
2022/10/04 08:18:34;;;;;;;12.68;3.88;;;;;;;19.10;53.90;101886.28;5028303;27;97313;-67
2022/10/04 08:21:07;;;;;;;16.23;4.43;;;;;;;19.20;52.87;101891.19;5024719;28;97868;-67
2022/10/04 08:23:53;;;;;;;17.75;4.75;;;;;;;19.44;52.28;101887.16;5027275;28;99213;-68
2022/10/04 08:26:44;;;;;;;10.50;4.00;;;;;;;20.01;50.58;101888.47;5026403;28;96824;-68
2022/10/04 08:29:44;;;;;;;13.10;5.72;;;;;;;19.75;50.99;101891.75;5030440;28;96891;-67
2022/10/04 08:32:29;;;;;;;13.05;4.00;;;;;;;18.08;54.25;101887.94;5029079;28;99085;-67
2022/10/04 08:35:15;;;;;;;13.70;4.70;;;;;;;18.03;55.15;101889.13;5029423;28;99340;-68
2022/10/04 08:37:53;;;;;;;11.43;3.72;;;;;;;17.90;55.64;101895.06;5025853;27;97056;-68
2022/10/04 08:41:02;;;;;;;16.50;4.85;;;;;;;18.86;53.47;101894.75;5024995;28;97103;-68
2022/10/04 08:43:56;;;;;;;9.10;4.78;;;;;;;19.26;52.04;101890.84;5028595;28;100619;-67
2022/10/04 08:47:01;;;;;;;14.13;4.78;;;;;;;19.86;50.18;101902.75;5029020;28;98784;-67
2022/10/04 08:50:00;;;;;;;13.02;3.80;;;;;;;19.67;51.04;101902.03;5017407;27;97257;-68
2022/10/04 08:52:58;;;;;;;9.02;3.45;;;;;;;19.70;50.81;101897.34;5025793;28;97099;-68
2022/10/04 08:55:54;;;;;;;12.48;3.30;;;;;;;19.02;52.03;101898.38;5024216;28;99071;-67
2022/10/04 08:59:06;;;;;;;10.55;3.05;;;;;;;19.26;51.68;101899.75;5028560;28;98840;-67
2022/10/04 09:01:50;;;;;;;7.55;3.00;;;;;;;19.60;50.47;101892.59;4960250;28;97004;-68
2022/10/04 09:05:09;;;;;;;8.43;2.55;;;;;;;19.27;50.87;101897.94;5023841;27;97166;-67
2022/10/04 09:08:10;;;;;;;7.18;2.30;;;;;;;19.63;50.41;101887.06;5024994;27;99397;-67
2022/10/04 09:10:56;;;;;;;11.00;2.67;;;;;;;19.89;49.25;101889.16;5018880;27;98829;-68
2022/10/04 09:13:34;;;;;;;9.68;3.83;;;;;;;20.41;48.55;101884.41;5027907;28;97297;-66
2022/10/04 09:16:15;;;;;;;8.88;2.97;;;;;;;20.47;48.27;101899.28;5026665;28;96808;-67
2022/10/04 09:18:53;;;;;;;6.47;2.40;;;;;;;20.98;46.84;101887.22;5028126;28;102205;-68
2022/10/04 09:21:28;;;;;;;8.50;2.17;;;;;;;20.89;46.74;101888.66;5023261;28;99173;-67
2022/10/04 09:24:27;;;;;;;11.50;2.40;;;;;;;21.11;46.23;101884.66;5028136;27;97502;-67
2022/10/04 09:27:10;;;;;;;6.07;2.30;;;;;;;21.00;46.58;101894.22;5022039;27;96954;-69
2022/10/04 09:37:04;;;;;;;7.03;2.15;;;;;;;19.95;49.34;101898.69;5015164;27;98010;-67
2022/10/04 09:39:46;;;;;;;9.32;2.67;;;;;;;20.11;48.98;101886.97;5025579;27;97937;-67
2022/10/04 09:42:38;;;;;;;11.93;3.28;;;;;;;20.29;48.66;101885.91;5026952;28;99230;-68
2022/10/04 09:45:33;;;;;;;4.93;2.05;;;;;;;20.32;48.16;101884.88;5023262;28;99322;-68
2022/10/04 09:48:24;;;;;;;10.45;2.53;;;;;;;20.39;48.37;101890.78;5024637;28;97293;-67
2022/10/04 09:51:24;;;;;;;8.52;1.77;;;;;;;19.69;48.98;101892.09;5016275;27;98174;-67
2022/10/04 09:54:04;;;;;;;11.05;2.15;;;;;;;20.21;48.24;101884.66;4996035;27;98862;-67
2022/10/04 09:56:44;;;;;;;7.60;1.92;;;;;;;20.34;47.69;101883.03;5029027;28;101924;-67
2022/10/04 09:59:37;;;;;;;4.97;1.75;;;;;;;20.29;47.61;101885.06;5028295;27;96796;-66
2022/10/04 10:02:29;;;;;;;5.22;1.63;;;;;;;20.26;47.97;101882.56;5027256;28;96879;-67
2022/10/04 10:05:15;;;;;;;6.32;1.77;;;;;;;20.65;47.34;101877.56;5004822;27;99089;-67
2022/10/04 10:07:53;;;;;;;5.65;1.77;;;;;;;20.75;47.44;101880.53;5012874;27;98870;-68
2022/10/04 10:13:39;;;;;;;9.48;2.17;;;;;;;19.60;50.24;101889.91;5028624;28;96794;-68
2022/10/04 10:16:21;;;;;;;9.30;2.30;;;;;;;19.93;49.74;101887.16;5023596;28;99714;-67
2022/10/04 10:19:13;;;;;;;10.23;2.20;;;;;;;20.39;48.87;101880.06;5027152;28;99151;-67
2022/10/04 10:22:09;;;;;;;8.35;2.55;;;;;;;21.02;47.28;101886.94;5028865;28;97428;-67
2022/10/04 10:25:10;;;;;;;8.48;2.60;;;;;;;21.05;46.62;101883.22;5023797;28;97380;-67
2022/10/04 10:28:02;;;;;;;9.80;2.00;;;;;;;20.86;47.38;101887.97;5027469;28;99207;-67
2022/10/04 10:30:39;;;;;;;10.40;2.17;;;;;;;20.96;47.27;101886.44;5028893;28;101241;-67
2022/10/04 10:33:32;;;;;;;10.95;2.10;;;;;;;21.20;46.50;101884.13;5029302;28;96911;-68
2022/10/04 10:36:36;;;;;;;10.35;2.50;;;;;;;21.65;45.59;101875.84;5029902;28;98282;-68
2022/10/04 10:39:48;;;;;;;12.02;2.15;;;;;;;21.70;45.49;101889.88;5024339;27;98196;-66
2022/10/04 10:42:39;;;;;;;7.93;1.75;;;;;;;21.90;44.83;101885.91;5030076;28;103799;-67
2022/10/04 10:45:35;;;;;;;13.02;2.67;;;;;;;21.63;45.26;101883.16;5028090;28;96778;-67
2022/10/04 10:48:12;;;;;;;8.85;2.30;;;;;;;21.80;45.52;101874.84;5023300;28;97245;-67
2022/10/04 10:51:01;;;;;;;7.43;2.25;;;;;;;21.53;45.79;101883.84;5030777;27;98819;-66
2022/10/04 10:54:07;;;;;;;10.25;2.17;;;;;;;21.10;46.28;101883.78;5031040;28;98885;-67
2022/10/04 10:56:42;;;;;;;12.10;2.42;;;;;;;21.12;46.54;101881.88;5027663;28;97396;-67
2022/10/04 10:59:32;;;;;;;9.85;2.00;;;;;;;21.08;46.75;101885.69;5029514;28;97306;-67
2022/10/04 11:02:35;;;;;;;8.88;2.20;;;;;;;21.24;46.76;101882.97;5031822;28;100278;-67
2022/10/04 11:05:23;;;;;;;8.43;1.95;;;;;;;21.78;45.33;101892.06;5028354;28;98779;-67
2022/10/04 11:07:54;;;;;;;6.93;2.05;;;;;;;21.34;45.80;101884.97;5031645;28;96955;-67
2022/10/04 11:10:53;;;;;;;13.43;2.25;;;;;;;21.48;46.15;101881.41;5030582;28;96859;-67
2022/10/04 11:13:53;;;;;;;10.80;2.00;;;;;;;21.79;45.36;101889.25;5030624;28;98880;-67
2022/10/04 11:16:46;;;;;;;13.30;3.08;;;;;;;22.14;45.10;101887.00;5026756;28;99220;-68
2022/10/04 11:19:50;;;;;;;12.63;2.30;;;;;;;21.87;45.17;101888.78;5031005;28;96846;-69
2022/10/04 11:22:58;;;;;;;8.75;2.50;;;;;;;21.95;45.36;101878.38;5030131;28;97167;-67
2022/10/04 11:25:46;;;;;;;8.55;2.30;;;;;;;21.66;45.87;101882.94;5025414;28;99525;-67
2022/10/04 11:28:20;;;;;;;10.80;2.15;;;;;;;21.41;46.16;101878.25;5026161;28;98842;-68
2022/10/04 11:31:24;;;;;;;9.57;2.05;;;;;;;20.66;47.59;101879.31;5029660;28;97214;-69
2022/10/04 11:34:16;;;;;;;7.40;1.83;;;;;;;20.96;47.48;101873.88;5029191;28;97188;-67
2022/10/04 11:36:56;;;;;;;8.65;1.90;;;;;;;22.22;45.05;101870.34;5026978;27;97609;-69
2022/10/04 11:39:54;;;;;;;14.10;2.25;;;;;;;22.63;43.11;101867.56;5025273;28;99377;-68
2022/10/04 11:42:36;;;;;;;16.52;2.47;;;;;;;22.27;43.86;101860.13;5025964;28;97423;-66
2022/10/04 11:45:43;;;;;;;9.43;1.90;;;;;;;22.27;43.58;101865.50;5021592;28;96959;-67
2022/10/04 11:48:23;;;;;;;13.38;2.30;;;;;;;22.31;43.61;101864.38;4948099;28;98869;-67
2022/10/04 11:51:17;;;;;;;15.32;2.20;;;;;;;22.34;43.44;101853.38;4949425;28;101624;-67
2022/10/04 11:54:12;;;;;;;9.82;1.60;;;;;;;21.91;43.68;101851.78;5004678;28;97215;-66
2022/10/04 11:56:55;;;;;;;13.70;2.45;;;;;;;22.01;43.83;101859.16;5030917;28;96837;-67
2022/10/04 11:59:37;;;;;;;15.95;1.75;;;;;;;21.53;44.80;101849.72;5023393;28;97845;-68
2022/10/04 12:02:34;;;;;;;9.23;1.90;;;;;;;21.61;44.97;101852.78;5025410;27;99289;-67
2022/10/04 12:05:23;;;;;;;7.00;1.83;;;;;;;21.87;44.11;101846.59;5025998;28;97257;-66
2022/10/04 12:08:01;;;;;;;8.93;2.03;;;;;;;21.49;44.85;101848.19;5027316;28;96833;-66
2022/10/04 12:10:33;;;;;;;9.85;1.80;;;;;;;21.75;44.43;101839.31;5029222;28;99343;-67
2022/10/04 12:13:32;;;;;;;11.15;1.58;;;;;;;21.56;45.03;101841.47;5030232;28;98866;-70
2022/10/04 12:16:12;;;;;;;9.93;1.65;;;;;;;21.91;44.08;101843.72;5026074;28;97334;-71
2022/10/04 12:19:12;;;;;;;6.85;1.60;;;;;;;21.63;43.89;101839.25;5028668;28;96878;-67
2022/10/04 12:21:57;;;;;;;8.70;1.30;;;;;;;22.00;43.32;101838.59;5008302;28;100454;-67
2022/10/04 12:24:42;;;;;;;9.63;1.52;;;;;;;22.06;42.83;101840.00;5023668;28;99504;-67
2022/10/04 12:27:39;;;;;;;11.02;1.80;;;;;;;22.36;42.27;101835.28;5024815;27;98226;-66